Time;durP1;ratioP1;P1;durP2;ratioP2;P2;SDS_P1;SDS_P2;PMS_P1;PMS_P2;Temp;Humidity;BMP_temperature;BMP_pressure;BME280_temperature;BME280_humidity;BME280_pressure;Samples;Min_cycle;Max_cycle;Signal;HPM_P1;HPM_P2
2021/07/24 00:00:34;;;;;;;18.17;11.82;;;16.70;99.90;;;;;;5094505;28;20043;-68
2021/07/24 00:02:59;;;;;;;15.82;10.93;;;16.60;99.90;;;;;;5093746;28;20048;-68
2021/07/24 00:05:25;;;;;;;19.70;11.43;;;16.70;99.90;;;;;;5094921;28;20048;-68
2021/07/24 00:07:51;;;;;;;15.70;11.02;;;16.70;99.90;;;;;;5094891;28;20028;-68
2021/07/24 00:10:16;;;;;;;18.60;12.40;;;16.70;99.90;;;;;;5094782;28;20112;-68
2021/07/24 00:12:42;;;;;;;19.25;10.88;;;16.70;99.90;;;;;;5095033;28;20036;-68
2021/07/24 00:15:08;;;;;;;18.05;11.68;;;16.60;99.90;;;;;;5094572;28;20032;-68
2021/07/24 00:17:34;;;;;;;15.88;11.57;;;16.60;99.90;;;;;;5095157;28;20036;-68
2021/07/24 00:20:00;;;;;;;19.00;12.60;;;16.60;99.90;;;;;;5094497;28;20036;-68
2021/07/24 00:22:25;;;;;;;19.95;11.80;;;16.60;99.90;;;;;;5094799;28;20059;-68
2021/07/24 00:24:51;;;;;;;18.83;11.73;;;16.40;99.90;;;;;;5095021;28;20043;-68
2021/07/24 00:27:17;;;;;;;20.15;12.32;;;16.50;99.90;;;;;;5095027;28;20039;-68
2021/07/24 00:29:42;;;;;;;21.48;12.98;;;16.50;99.90;;;;;;5094371;28;20046;-69
2021/07/24 00:32:08;;;;;;;19.65;14.32;;;16.40;99.90;;;;;;5094456;28;20032;-69
2021/07/24 00:34:34;;;;;;;17.35;11.88;;;16.40;99.90;;;;;;5094558;28;20483;-70
2021/07/24 00:36:59;;;;;;;19.98;13.23;;;16.40;99.90;;;;;;5094872;28;20468;-70
2021/07/24 00:39:26;;;;;;;20.02;12.63;;;16.40;99.90;;;;;;5093898;28;20455;-71
2021/07/24 00:42:03;;;;;;;20.60;13.10;;;16.30;99.90;;;;;;5094279;28;20443;-70
2021/07/24 00:44:30;;;;;;;19.75;12.95;;;16.20;99.90;;;;;;5094303;28;20507;-70
2021/07/24 00:46:57;;;;;;;19.65;12.95;;;16.20;99.90;;;;;;5094331;28;20446;-70
2021/07/24 00:49:26;;;;;;;20.23;12.30;;;16.20;99.90;;;;;;5094173;28;20105;-70
2021/07/24 00:51:54;;;;;;;23.05;14.07;;;16.20;99.90;;;;;;5094399;28;20093;-70
2021/07/24 00:54:21;;;;;;;20.40;13.55;;;16.20;99.90;;;;;;5094277;28;20044;-71
2021/07/24 00:56:49;;;;;;;20.80;13.10;;;16.20;99.90;;;;;;5094144;28;20036;-70
2021/07/24 00:59:15;;;;;;;18.65;13.00;;;16.20;99.90;;;;;;5093462;28;20361;-70
2021/07/24 01:01:46;;;;;;;22.20;13.68;;;16.20;99.90;;;;;;5094057;28;20456;-70
2021/07/24 01:04:12;;;;;;;23.20;14.52;;;16.20;99.90;;;;;;5093943;28;20114;-70
2021/07/24 01:06:40;;;;;;;22.88;13.57;;;16.20;99.90;;;;;;5093890;28;20124;-70
2021/07/24 01:09:05;;;;;;;21.40;13.25;;;16.20;99.90;;;;;;5093699;28;20190;-69
2021/07/24 01:11:31;;;;;;;21.08;13.15;;;16.10;99.90;;;;;;5094615;28;20048;-69
2021/07/24 01:13:57;;;;;;;20.27;13.80;;;16.10;99.90;;;;;;5093754;28;20480;-71
2021/07/24 01:16:23;;;;;;;25.60;14.10;;;16.20;99.90;;;;;;5093894;28;20438;-70
2021/07/24 01:18:49;;;;;;;22.23;12.85;;;16.00;99.90;;;;;;5093526;28;20036;-70
2021/07/24 01:21:26;;;;;;;24.35;13.43;;;16.00;99.90;;;;;;5094200;28;20040;-70
2021/07/24 01:23:52;;;;;;;20.92;13.20;;;16.00;99.90;;;;;;5093378;28;20040;-70
2021/07/24 01:26:35;;;;;;;22.52;14.52;;;16.00;99.90;;;;;;5093581;28;20376;-70
2021/07/24 01:29:05;;;;;;;23.02;14.23;;;16.00;99.90;;;;;;5093210;28;20124;-70
2021/07/24 01:31:31;;;;;;;21.77;14.15;;;16.00;99.90;;;;;;5093382;28;20404;-70
2021/07/24 01:33:56;;;;;;;23.70;13.63;;;16.10;99.90;;;;;;5094153;28;20036;-69
2021/07/24 01:36:22;;;;;;;18.48;13.40;;;16.00;99.90;;;;;;5093777;28;20089;-70
2021/07/24 01:38:48;;;;;;;20.83;13.55;;;16.00;99.90;;;;;;5093116;28;20586;-70
2021/07/24 01:41:17;;;;;;;22.92;13.75;;;15.90;99.90;;;;;;5093774;28;20064;-70
2021/07/24 01:43:43;;;;;;;22.17;14.27;;;15.90;99.90;;;;;;5093870;28;20040;-70
2021/07/24 01:46:08;;;;;;;20.85;13.68;;;15.90;99.90;;;;;;5093998;28;20362;-70
2021/07/24 01:48:44;;;;;;;22.92;13.75;;;15.80;99.90;;;;;;5093070;28;20157;-69
2021/07/24 01:54:12;;;;;;;21.15;14.35;;;15.80;99.90;;;;;;5093830;28;20137;-71
2021/07/24 01:56:38;;;;;;;23.45;13.27;;;15.70;99.90;;;;;;5093507;28;20040;-69
2021/07/24 01:59:04;;;;;;;23.50;13.82;;;15.70;99.90;;;;;;5093099;28;20043;-70
2021/07/24 02:01:31;;;;;;;19.02;12.38;;;15.70;99.90;;;;;;5093112;28;20153;-69
2021/07/24 02:04:10;;;;;;;23.80;14.25;;;15.70;99.90;;;;;;5093303;28;20032;-69
2021/07/24 02:06:36;;;;;;;19.13;13.05;;;15.70;99.90;;;;;;5093744;28;20040;-69
2021/07/24 02:09:02;;;;;;;23.85;14.07;;;15.60;99.90;;;;;;5092967;28;20042;-69
2021/07/24 02:11:27;;;;;;;23.92;13.32;;;15.60;99.90;;;;;;5093059;28;20143;-69
2021/07/24 02:13:53;;;;;;;26.45;14.48;;;15.60;99.90;;;;;;5092931;28;20499;-69
2021/07/24 02:16:19;;;;;;;21.63;13.93;;;15.70;99.90;;;;;;5093052;28;20160;-69
2021/07/24 02:18:45;;;;;;;22.13;13.13;;;15.60;99.90;;;;;;5092715;28;20032;-69
2021/07/24 02:21:13;;;;;;;23.05;14.15;;;15.60;99.90;;;;;;5091798;28;20035;-69
2021/07/24 02:23:38;;;;;;;22.10;14.98;;;15.60;99.90;;;;;;5092997;28;20067;-69
2021/07/24 02:26:04;;;;;;;23.30;14.20;;;15.50;99.90;;;;;;5093147;28;20472;-69
2021/07/24 02:28:30;;;;;;;21.25;12.82;;;15.50;99.90;;;;;;5092832;28;20036;-70
2021/07/24 02:30:56;;;;;;;26.23;14.30;;;15.40;99.90;;;;;;5092930;28;20407;-69
2021/07/24 02:33:22;;;;;;;25.60;15.18;;;15.50;99.90;;;;;;5092983;28;20404;-69
2021/07/24 02:35:49;;;;;;;21.48;13.50;;;15.50;99.90;;;;;;5096781;28;20068;-69
2021/07/24 02:38:15;;;;;;;21.08;12.90;;;15.40;99.90;;;;;;5096531;28;20040;-69
2021/07/24 02:40:41;;;;;;;19.63;12.02;;;15.40;99.90;;;;;;5096775;28;20036;-69
2021/07/24 02:43:07;;;;;;;25.55;13.25;;;15.50;99.90;;;;;;5097099;28;20403;-69
2021/07/24 02:45:32;;;;;;;19.92;13.73;;;15.50;99.90;;;;;;5096583;28;20040;-69
2021/07/24 02:47:58;;;;;;;21.40;12.73;;;15.40;99.90;;;;;;5097004;28;20047;-69
2021/07/24 02:50:24;;;;;;;24.25;13.35;;;15.40;99.90;;;;;;5096111;28;20450;-69
2021/07/24 02:52:50;;;;;;;21.52;13.43;;;15.30;99.90;;;;;;5096519;28;20472;-69
2021/07/24 02:55:16;;;;;;;24.23;13.20;;;15.30;99.90;;;;;;5096922;28;20040;-69
2021/07/24 02:57:42;;;;;;;21.63;13.30;;;15.30;99.90;;;;;;5096910;28;20476;-69
2021/07/24 03:00:09;;;;;;;20.42;13.77;;;15.30;99.90;;;;;;5095720;28;20128;-69
2021/07/24 03:02:34;;;;;;;20.38;13.23;;;15.30;99.90;;;;;;5096213;28;20533;-69
2021/07/24 03:05:00;;;;;;;19.23;12.05;;;15.30;99.90;;;;;;5096079;28;20031;-69
2021/07/24 03:07:26;;;;;;;21.35;13.95;;;15.20;99.90;;;;;;5096659;28;20090;-69
2021/07/24 03:09:51;;;;;;;20.08;12.77;;;15.20;99.90;;;;;;5095655;28;20089;-69
2021/07/24 03:12:17;;;;;;;23.83;13.70;;;15.20;99.90;;;;;;5096646;28;20123;-69
2021/07/24 03:14:44;;;;;;;21.15;13.20;;;15.20;99.90;;;;;;5096073;28;20043;-69
2021/07/24 03:17:09;;;;;;;23.35;13.45;;;15.20;99.90;;;;;;5096143;28;20460;-69
2021/07/24 03:19:35;;;;;;;21.27;12.55;;;15.20;99.90;;;;;;5095447;28;20050;-69
2021/07/24 03:22:01;;;;;;;19.40;12.60;;;15.10;99.90;;;;;;5095890;28;20036;-69
2021/07/24 03:24:27;;;;;;;17.83;12.15;;;15.10;99.90;;;;;;5095720;28;20495;-69
2021/07/24 03:26:52;;;;;;;18.98;12.60;;;15.20;99.90;;;;;;5096248;28;20040;-69
2021/07/24 03:29:18;;;;;;;22.98;13.15;;;15.10;99.90;;;;;;5095320;28;20047;-69
2021/07/24 03:31:44;;;;;;;20.60;13.73;;;15.20;99.90;;;;;;5095511;28;20043;-69
2021/07/24 03:34:09;;;;;;;19.27;12.82;;;15.10;99.90;;;;;;5095859;28;20396;-69
2021/07/24 03:36:35;;;;;;;21.80;13.18;;;15.20;99.90;;;;;;5095962;28;20111;-69
2021/07/24 03:39:01;;;;;;;18.50;12.77;;;15.20;99.90;;;;;;5095345;28;20039;-69
2021/07/24 03:41:26;;;;;;;22.13;13.13;;;15.20;99.90;;;;;;5095631;28;20448;-69
2021/07/24 03:43:52;;;;;;;22.33;13.23;;;15.20;99.90;;;;;;5095830;28;20039;-69
2021/07/24 03:46:21;;;;;;;22.67;13.35;;;15.10;99.90;;;;;;5095018;28;20075;-69
2021/07/24 03:48:47;;;;;;;20.55;12.82;;;15.10;99.90;;;;;;5095454;28;20114;-69
2021/07/24 03:51:15;;;;;;;25.33;14.23;;;15.10;99.90;;;;;;5095253;28;20040;-69
2021/07/24 03:53:42;;;;;;;21.98;12.85;;;15.10;99.90;;;;;;5095924;28;20111;-69
2021/07/24 03:56:21;;;;;;;24.77;13.98;;;15.10;99.90;;;;;;5095189;28;20064;-69
2021/07/24 03:58:50;;;;;;;24.85;13.23;;;15.00;99.90;;;;;;5094939;28;20615;-69
2021/07/24 04:01:16;;;;;;;24.92;13.55;;;15.10;99.90;;;;;;5095343;28;20368;-69
2021/07/24 04:03:41;;;;;;;25.10;14.88;;;15.10;99.90;;;;;;5095097;28;20377;-69
2021/07/24 04:06:22;;;;;;;22.83;12.93;;;15.00;99.90;;;;;;5095525;28;20093;-69
2021/07/24 04:08:49;;;;;;;19.02;13.77;;;15.10;99.90;;;;;;5095049;28;20036;-69
2021/07/24 04:11:17;;;;;;;20.73;13.32;;;15.10;99.90;;;;;;5095049;28;20040;-69
2021/07/24 04:13:43;;;;;;;24.13;14.07;;;15.00;99.90;;;;;;5095044;28;20032;-69
2021/07/24 04:16:08;;;;;;;21.70;12.68;;;15.00;99.90;;;;;;5095144;28;20448;-69
2021/07/24 04:18:35;;;;;;;22.98;13.60;;;15.00;99.90;;;;;;5094572;28;20044;-69
2021/07/24 04:21:01;;;;;;;23.60;13.60;;;15.00;99.90;;;;;;5094865;28;20115;-69
2021/07/24 04:23:27;;;;;;;18.33;11.75;;;15.00;99.90;;;;;;5094798;28;20040;-68
2021/07/24 04:25:53;;;;;;;25.08;12.95;;;15.10;99.90;;;;;;5094697;28;20047;-69
2021/07/24 04:28:19;;;;;;;28.38;13.77;;;15.20;99.90;;;;;;5094562;28;20111;-69
2021/07/24 04:30:45;;;;;;;21.95;13.07;;;15.20;99.90;;;;;;5094428;28;20126;-69
2021/07/24 04:33:10;;;;;;;21.33;13.00;;;15.20;99.90;;;;;;5095066;28;20464;-69
2021/07/24 04:35:36;;;;;;;20.23;12.95;;;15.20;99.90;;;;;;5095001;28;20434;-69
2021/07/24 04:38:02;;;;;;;18.88;11.38;;;15.20;99.90;;;;;;5094327;28;20109;-69
2021/07/24 04:40:27;;;;;;;19.00;12.23;;;15.30;99.90;;;;;;5093787;28;20040;-69
2021/07/24 04:42:53;;;;;;;20.85;12.52;;;15.30;99.90;;;;;;5094523;28;20115;-68
2021/07/24 04:45:19;;;;;;;19.65;12.82;;;15.40;99.90;;;;;;5094198;28;20398;-68
2021/07/24 04:47:45;;;;;;;16.42;11.00;;;15.40;99.90;;;;;;5094298;28;20036;-68
2021/07/24 04:50:11;;;;;;;19.15;11.52;;;15.40;99.90;;;;;;5093515;28;20476;-69
2021/07/24 04:52:37;;;;;;;18.83;11.50;;;15.40;99.90;;;;;;5094233;28;20044;-69
2021/07/24 04:55:05;;;;;;;19.45;12.02;;;15.50;99.90;;;;;;5094198;28;20043;-69
2021/07/24 04:57:33;;;;;;;20.08;11.90;;;15.60;99.90;;;;;;5093415;28;20063;-69
2021/07/24 05:00:00;;;;;;;19.77;12.07;;;15.80;99.90;;;;;;5093690;28;20040;-69
2021/07/24 05:02:26;;;;;;;22.75;11.55;;;15.80;99.90;;;;;;5094214;28;20032;-68
2021/07/24 05:04:52;;;;;;;20.95;12.07;;;16.00;99.90;;;;;;5094482;28;20036;-68
2021/07/24 05:07:19;;;;;;;19.17;11.52;;;16.10;99.90;;;;;;5094168;28;20040;-69
2021/07/24 05:09:46;;;;;;;18.05;11.18;;;16.30;99.90;;;;;;5093784;28;20097;-69
2021/07/24 05:12:11;;;;;;;17.23;11.35;;;16.50;99.90;;;;;;5093904;28;20043;-69
2021/07/24 05:14:40;;;;;;;16.75;11.27;;;16.60;99.90;;;;;;5093719;28;20507;-69
2021/07/24 05:17:08;;;;;;;18.50;11.40;;;16.80;99.90;;;;;;5093966;28;20051;-68
2021/07/24 05:19:40;;;;;;;17.80;10.60;;;16.90;99.90;;;;;;5093433;28;20106;-68
2021/07/24 05:22:07;;;;;;;15.60;10.55;;;17.10;99.90;;;;;;5093756;28;20036;-68
2021/07/24 05:24:36;;;;;;;17.23;10.63;;;17.30;99.90;;;;;;5093706;28;20089;-68
2021/07/24 05:27:03;;;;;;;16.13;10.88;;;17.50;99.90;;;;;;5093950;28;20043;-69
2021/07/24 05:29:29;;;;;;;16.40;10.13;;;17.60;99.90;;;;;;5093426;28;20040;-68
2021/07/24 05:31:55;;;;;;;17.13;10.98;;;17.60;99.90;;;;;;5093563;28;20445;-69
2021/07/24 05:34:21;;;;;;;15.70;9.93;;;17.60;99.90;;;;;;5093634;28;20036;-70
2021/07/24 05:36:47;;;;;;;17.83;11.35;;;17.70;99.90;;;;;;5094009;28;20040;-70
2021/07/24 05:39:18;;;;;;;15.52;11.23;;;17.60;99.90;;;;;;5093074;28;20044;-70
2021/07/24 05:41:44;;;;;;;16.42;11.68;;;17.60;99.90;;;;;;5093396;28;20082;-70
2021/07/24 05:44:12;;;;;;;16.17;9.82;;;17.60;99.90;;;;;;5093625;28;20396;-70
2021/07/24 05:46:38;;;;;;;12.02;10.00;;;17.90;99.90;;;;;;5092872;28;20044;-71
2021/07/24 05:49:04;;;;;;;15.75;9.45;;;18.00;99.90;;;;;;5093230;28;20457;-71
2021/07/24 05:51:32;;;;;;;16.17;9.80;;;18.10;99.90;;;;;;5093773;28;20385;-70
2021/07/24 05:53:58;;;;;;;14.82;9.90;;;18.20;99.90;;;;;;5092678;28;20048;-71
2021/07/24 05:56:23;;;;;;;16.85;9.40;;;18.40;99.90;;;;;;5093780;28;20044;-70
2021/07/24 05:58:49;;;;;;;16.95;9.70;;;18.50;99.90;;;;;;5092910;28;20069;-69
2021/07/24 06:01:15;;;;;;;13.20;9.07;;;18.60;99.90;;;;;;5093493;28;20130;-69
2021/07/24 06:03:41;;;;;;;14.57;10.13;;;18.80;99.90;;;;;;5093510;28;20044;-69
2021/07/24 06:06:08;;;;;;;16.33;9.55;;;18.90;99.90;;;;;;5093490;28;20456;-69
2021/07/24 06:08:36;;;;;;;15.60;9.52;;;18.80;99.90;;;;;;5093203;28;20044;-70
2021/07/24 06:11:04;;;;;;;13.73;8.98;;;18.90;99.90;;;;;;5097160;28;20555;-70
2021/07/24 06:13:31;;;;;;;13.52;9.40;;;19.00;99.90;;;;;;5097054;28;20071;-70
2021/07/24 06:15:57;;;;;;;13.57;9.32;;;19.00;99.90;;;;;;5097017;28;20036;-70
2021/07/24 06:18:23;;;;;;;14.07;9.00;;;19.30;99.90;;;;;;5097214;28;20040;-70
2021/07/24 06:20:49;;;;;;;14.32;9.55;;;19.40;99.90;;;;;;5096563;28;20503;-70
2021/07/24 06:23:16;;;;;;;14.15;9.07;;;19.60;99.90;;;;;;5097468;28;20067;-70
2021/07/24 06:25:44;;;;;;;13.77;8.55;;;19.50;99.90;;;;;;5096902;28;20044;-70
2021/07/24 06:28:11;;;;;;;16.23;9.52;;;19.50;99.90;;;;;;5096755;28;20048;-70
2021/07/24 06:30:37;;;;;;;12.77;9.48;;;19.60;99.90;;;;;;5096443;28;20040;-70
2021/07/24 06:33:03;;;;;;;13.60;9.02;;;19.80;99.90;;;;;;5097529;28;20475;-70
2021/07/24 06:35:29;;;;;;;12.48;9.05;;;19.80;99.90;;;;;;5096600;28;20157;-70
2021/07/24 06:37:55;;;;;;;13.82;9.88;;;19.90;99.90;;;;;;5096971;28;20114;-70
2021/07/24 06:40:21;;;;;;;12.85;8.63;;;20.00;99.90;;;;;;5096055;28;20040;-70
2021/07/24 06:42:46;;;;;;;15.27;9.45;;;20.10;99.90;;;;;;5096724;28;20047;-69
2021/07/24 06:45:12;;;;;;;14.18;8.23;;;20.20;99.90;;;;;;5096636;28;20426;-70
2021/07/24 06:47:38;;;;;;;12.93;8.45;;;20.20;99.90;;;;;;5096651;28;20040;-70
2021/07/24 06:50:04;;;;;;;14.38;9.70;;;20.30;99.90;;;;;;5096590;28;20040;-70
2021/07/24 06:52:30;;;;;;;14.45;9.48;;;20.20;99.90;;;;;;5096318;28;20089;-70
2021/07/24 06:54:55;;;;;;;13.88;9.60;;;20.30;99.90;;;;;;5097013;28;20040;-70
2021/07/24 06:57:21;;;;;;;12.38;9.10;;;20.20;99.90;;;;;;5096863;28;20349;-70
2021/07/24 06:59:47;;;;;;;13.80;8.82;;;20.30;99.90;;;;;;5094879;28;20048;-69
2021/07/24 07:02:13;;;;;;;12.98;9.05;;;20.50;99.90;;;;;;5096081;28;20044;-70
2021/07/24 07:04:39;;;;;;;12.18;8.70;;;20.50;99.90;;;;;;5096505;28;20043;-69
2021/07/24 07:07:06;;;;;;;16.27;9.88;;;20.80;99.90;;;;;;5096684;28;20059;-70
2021/07/24 07:09:35;;;;;;;15.88;10.20;;;20.60;99.90;;;;;;5095762;28;20407;-70
2021/07/24 07:12:02;;;;;;;17.42;9.88;;;20.90;99.90;;;;;;5095941;28;20036;-70
2021/07/24 07:14:28;;;;;;;13.35;9.25;;;20.80;99.90;;;;;;5096130;28;20044;-69
2021/07/24 07:16:54;;;;;;;14.73;9.30;;;21.00;99.90;;;;;;5095942;28;20042;-70
2021/07/24 07:19:21;;;;;;;13.70;8.23;;;21.10;99.90;;;;;;5095103;28;20094;-67
2021/07/24 07:21:47;;;;;;;9.85;8.05;;;21.40;99.90;;;;;;5094983;28;20043;-67
2021/07/24 07:24:13;;;;;;;11.68;8.85;;;21.50;99.90;;;;;;5093968;28;20477;-67
2021/07/24 07:26:40;;;;;;;10.02;8.02;;;21.60;99.60;;;;;;5093899;28;20040;-67
2021/07/24 07:29:06;;;;;;;12.18;8.20;;;21.50;99.70;;;;;;5095430;28;20063;-67
2021/07/24 07:31:33;;;;;;;11.98;7.55;;;21.80;99.80;;;;;;5077993;28;20388;-66
2021/07/24 07:34:00;;;;;;;9.98;7.80;;;22.00;99.50;;;;;;5095920;28;20047;-66
2021/07/24 07:36:26;;;;;;;9.02;7.38;;;22.10;98.50;;;;;;5095689;28;20028;-66
2021/07/24 07:38:52;;;;;;;10.52;7.10;;;22.20;98.30;;;;;;5095454;28;20404;-70
2021/07/24 07:41:18;;;;;;;12.05;7.10;;;22.30;98.40;;;;;;5095252;28;20489;-70
2021/07/24 07:43:45;;;;;;;9.82;6.70;;;22.10;98.20;;;;;;5095634;28;20052;-70
2021/07/24 07:46:10;;;;;;;9.00;6.70;;;22.30;98.00;;;;;;5095626;28;20032;-70
2021/07/24 07:48:37;;;;;;;11.55;6.50;;;22.40;97.30;;;;;;5095354;28;20047;-70
2021/07/24 07:51:03;;;;;;;6.97;5.43;;;22.50;96.80;;;;;;5095157;28;20446;-69
2021/07/24 07:53:29;;;;;;;10.65;6.38;;;22.60;96.90;;;;;;5095242;28;20041;-69
2021/07/24 07:55:54;;;;;;;9.38;6.40;;;22.80;96.60;;;;;;5095362;28;20032;-69
2021/07/24 07:58:20;;;;;;;10.07;6.45;;;22.80;96.20;;;;;;5095325;28;20070;-69
2021/07/24 08:00:46;;;;;;;9.77;6.25;;;22.90;95.60;;;;;;5094752;28;20052;-69
2021/07/24 08:03:12;;;;;;;8.38;6.38;;;22.90;95.30;;;;;;5095361;28;20047;-70
2021/07/24 08:05:38;;;;;;;9.00;6.32;;;22.80;95.50;;;;;;5095552;28;20044;-69
2021/07/24 08:08:04;;;;;;;10.77;6.85;;;22.90;95.40;;;;;;5095094;28;20040;-70
2021/07/24 08:10:29;;;;;;;12.38;6.78;;;22.90;95.90;;;;;;5094593;28;20043;-70
2021/07/24 08:12:55;;;;;;;8.95;6.50;;;22.80;96.00;;;;;;5094908;28;20039;-70
2021/07/24 08:15:20;;;;;;;8.45;6.43;;;22.80;96.30;;;;;;5095106;28;20036;-70
2021/07/24 08:17:46;;;;;;;8.15;6.80;;;23.10;96.30;;;;;;5093683;28;20093;-70
2021/07/24 08:20:12;;;;;;;9.52;6.40;;;23.10;95.90;;;;;;5092751;28;20127;-68
2021/07/24 08:22:38;;;;;;;10.63;6.75;;;23.20;95.80;;;;;;5095280;28;20044;-69
2021/07/24 08:25:05;;;;;;;14.60;7.18;;;23.70;95.80;;;;;;5094636;28;20036;-69
2021/07/24 08:27:34;;;;;;;11.00;6.80;;;23.60;94.70;;;;;;5094899;28;20032;-69
2021/07/24 08:30:00;;;;;;;7.47;6.60;;;23.70;94.40;;;;;;5093381;28;20078;-69
2021/07/24 08:32:26;;;;;;;14.10;7.57;;;23.80;93.90;;;;;;5094412;28;20036;-69
2021/07/24 08:34:52;;;;;;;8.77;6.22;;;23.70;94.00;;;;;;5094676;28;20148;-70
2021/07/24 08:37:19;;;;;;;9.48;7.10;;;23.90;93.90;;;;;;5094295;28;20062;-70
2021/07/24 08:39:45;;;;;;;10.10;6.35;;;24.10;94.00;;;;;;5094071;28;20075;-70
2021/07/24 08:42:30;;;;;;;10.63;7.22;;;24.20;94.10;;;;;;5094471;28;20040;-69
2021/07/24 08:44:56;;;;;;;10.35;6.32;;;24.20;92.70;;;;;;5094645;28;20043;-70
2021/07/24 08:47:22;;;;;;;10.95;6.60;;;24.20;92.80;;;;;;5094077;28;20040;-69
2021/07/24 08:49:47;;;;;;;9.48;7.13;;;24.30;93.10;;;;;;5093831;28;20047;-69
2021/07/24 08:52:20;;;;;;;8.05;6.32;;;24.30;93.70;;;;;;5094183;28;20419;-69
2021/07/24 08:54:46;;;;;;;;;;;24.60;93.20;;;;;;5093871;28;20032;-69
2021/07/24 08:57:16;;;;;;;9.27;6.60;;;24.60;93.10;;;;;;5094475;28;19985;-69
2021/07/24 08:59:43;;;;;;;7.95;5.82;;;24.90;92.60;;;;;;5093682;28;20043;-70
2021/07/24 09:02:10;;;;;;;13.40;6.70;;;24.90;92.30;;;;;;5094311;28;20123;-69
2021/07/24 09:04:36;;;;;;;9.30;6.50;;;24.90;91.80;;;;;;5093911;28;20036;-69
2021/07/24 09:07:05;;;;;;;9.00;7.10;;;24.90;91.80;;;;;;5094337;28;20089;-69
2021/07/24 09:09:31;;;;;;;10.18;6.35;;;24.70;91.70;;;;;;5094166;28;20510;-69
2021/07/24 09:11:58;;;;;;;10.63;7.65;;;24.90;92.10;;;;;;5094191;28;20115;-70
2021/07/24 09:14:24;;;;;;;10.90;7.38;;;24.90;91.80;;;;;;5094788;28;20040;-68
2021/07/24 09:16:50;;;;;;;8.55;6.65;;;24.90;91.30;;;;;;5094496;28;20494;-68
2021/07/24 09:19:17;;;;;;;10.85;7.13;;;24.90;91.50;;;;;;5093710;28;20064;-68
2021/07/24 09:21:43;;;;;;;11.07;6.82;;;24.80;90.60;;;;;;5093889;28;20456;-68
2021/07/24 09:24:21;;;;;;;8.95;6.13;;;24.80;91.20;;;;;;5094181;28;20065;-68
2021/07/24 09:26:47;;;;;;;9.05;6.85;;;24.90;90.90;;;;;;5093451;28;20040;-69
2021/07/24 09:29:17;;;;;;;9.75;6.53;;;24.90;90.60;;;;;;5093425;28;20400;-69
2021/07/24 09:31:44;;;;;;;13.63;7.40;;;24.90;90.90;;;;;;5093938;28;20039;-68
2021/07/24 09:34:11;;;;;;;8.40;6.65;;;24.70;90.90;;;;;;5093664;28;20032;-68
2021/07/24 09:36:38;;;;;;;10.77;6.85;;;24.80;91.70;;;;;;5093634;28;20047;-68
2021/07/24 09:39:08;;;;;;;10.05;6.95;;;24.80;92.10;;;;;;5093237;28;20433;-68
2021/07/24 09:41:33;;;;;;;11.80;6.55;;;24.70;91.00;;;;;;5093449;28;20559;-68
2021/07/24 09:44:00;;;;;;;13.45;7.30;;;24.60;91.70;;;;;;5095882;28;20154;-68
2021/07/24 09:46:27;;;;;;;8.88;6.75;;;24.50;91.60;;;;;;5100138;28;20498;-68
2021/07/24 09:48:54;;;;;;;10.35;6.75;;;24.60;90.60;;;;;;5100028;28;20050;-71
2021/07/24 09:51:36;;;;;;;12.43;7.10;;;24.50;92.10;;;;;;5099846;28;20133;-71
2021/07/24 09:54:06;;;;;;;10.63;7.05;;;24.50;91.90;;;;;;5100728;28;20396;-71
2021/07/24 09:56:44;;;;;;;9.82;6.03;;;24.50;93.10;;;;;;5100432;28;20114;-71
2021/07/24 09:59:22;;;;;;;10.15;6.70;;;24.50;92.50;;;;;;5099978;28;20092;-71
2021/07/24 10:02:04;;;;;;;14.00;7.05;;;24.50;91.70;;;;;;5082592;28;20036;-71
2021/07/24 10:04:37;;;;;;;7.45;6.13;;;24.30;92.20;;;;;;5099917;28;20519;-71
2021/07/24 10:07:08;;;;;;;10.20;7.53;;;24.30;93.40;;;;;;5100182;28;20044;-71
2021/07/24 10:09:36;;;;;;;10.10;7.45;;;24.30;92.60;;;;;;5099780;28;20404;-71
2021/07/24 10:12:08;;;;;;;9.38;7.22;;;24.40;92.30;;;;;;5099821;28;20488;-71
2021/07/24 10:14:37;;;;;;;8.07;6.35;;;24.30;92.40;;;;;;5100349;28;20456;-71
2021/07/24 10:17:03;;;;;;;9.48;6.85;;;24.40;92.80;;;;;;5099789;28;20537;-71
2021/07/24 10:19:29;;;;;;;9.77;6.28;;;24.40;92.60;;;;;;5099460;28;20035;-71
2021/07/24 10:21:57;;;;;;;8.00;5.68;;;24.40;92.70;;;;;;5100190;28;20051;-71
2021/07/24 10:24:23;;;;;;;9.52;6.30;;;24.30;92.50;;;;;;5099725;28;20111;-71
2021/07/24 10:27:13;;;;;;;7.97;6.15;;;24.40;92.30;;;;;;5100265;28;20125;-71
2021/07/24 10:30:02;;;;;;;12.93;6.45;;;24.50;92.10;;;;;;5094308;28;20083;-71
2021/07/24 10:32:30;;;;;;;8.13;5.95;;;24.50;92.30;;;;;;5099921;28;20115;-71
2021/07/24 10:34:56;;;;;;;7.88;6.20;;;24.50;92.20;;;;;;5099722;28;20036;-71
2021/07/24 10:37:30;;;;;;;9.98;6.90;;;24.60;92.60;;;;;;5099538;28;20032;-71
2021/07/24 10:40:15;;;;;;;10.18;7.35;;;24.50;92.10;;;;;;5097771;28;20043;-71
2021/07/24 10:42:41;;;;;;;24.42;9.15;;;24.30;92.40;;;;;;5099510;28;20401;-71
2021/07/24 10:45:31;;;;;;;14.85;7.53;;;24.40;92.70;;;;;;5099847;28;20040;-71
2021/07/24 10:48:12;;;;;;;8.38;5.75;;;24.40;92.20;;;;;;5100101;28;20040;-70
2021/07/24 10:50:53;;;;;;;9.18;6.05;;;24.30;92.20;;;;;;5099294;28;20047;-71
2021/07/24 10:53:23;;;;;;;11.52;7.07;;;24.40;92.20;;;;;;5099507;28;20036;-70
2021/07/24 10:55:50;;;;;;;10.88;7.07;;;24.50;92.40;;;;;;5097678;28;20036;-70
2021/07/24 10:58:24;;;;;;;11.15;6.80;;;24.40;92.30;;;;;;5096694;28;20040;-71
2021/07/24 11:00:51;;;;;;;11.18;6.88;;;24.70;91.70;;;;;;5096405;28;20357;-71
2021/07/24 11:03:55;;;;;;;8.93;6.82;;;24.70;90.70;;;;;;5096205;28;20130;-69
2021/07/24 11:06:26;;;;;;;9.13;6.60;;;24.90;90.40;;;;;;5094719;28;20048;-72
2021/07/24 11:09:10;;;;;;;12.02;6.57;;;24.90;90.70;;;;;;5096326;28;20040;-69
2021/07/24 11:11:46;;;;;;;6.47;5.78;;;25.10;92.10;;;;;;5096887;28;20464;-70
2021/07/24 11:14:29;;;;;;;7.95;6.40;;;25.10;90.90;;;;;;5096178;28;20029;-70
2021/07/24 11:17:07;;;;;;;8.73;6.60;;;25.00;90.50;;;;;;5096363;28;20044;-71
2021/07/24 11:20:00;;;;;;;9.43;7.75;;;25.10;90.90;;;;;;5095839;28;20075;-70
2021/07/24 11:22:30;;;;;;;11.00;6.72;;;25.20;90.20;;;;;;5079441;28;20055;-70
2021/07/24 11:24:55;;;;;;;10.50;6.70;;;25.40;89.40;;;;;;5096208;28;20539;-70
2021/07/24 11:27:26;;;;;;;8.68;6.55;;;25.70;88.90;;;;;;5096183;28;20036;-70
2021/07/24 11:30:10;;;;;;;8.90;6.78;;;25.90;87.20;;;;;;5095295;28;20040;-71
2021/07/24 11:32:44;;;;;;;10.07;6.93;;;25.90;87.30;;;;;;5094694;28;20078;-70
2021/07/24 11:35:14;;;;;;;12.75;6.45;;;26.00;86.30;;;;;;5096133;28;20047;-70
2021/07/24 11:37:47;;;;;;;8.88;5.90;;;26.20;86.80;;;;;;5095891;28;20032;-69
2021/07/24 11:40:18;;;;;;;9.80;7.72;;;26.10;85.80;;;;;;5093920;28;20047;-68
2021/07/24 11:43:01;;;;;;;9.85;6.70;;;26.00;83.80;;;;;;5096115;28;20065;-69
2021/07/24 11:45:28;;;;;;;8.52;6.57;;;25.80;84.70;;;;;;5095431;28;20114;-69
2021/07/24 11:48:15;;;;;;;14.55;7.35;;;25.90;85.10;;;;;;5095537;28;20036;-69
2021/07/24 11:50:43;;;;;;;14.00;7.82;;;25.90;83.50;;;;;;5093524;28;20047;-71
2021/07/24 11:53:10;;;;;;;12.00;7.35;;;25.80;84.80;;;;;;5095338;28;20507;-70
2021/07/24 11:55:37;;;;;;;9.45;7.00;;;25.70;85.40;;;;;;5095636;28;20040;-69
2021/07/24 11:58:08;;;;;;;9.50;6.90;;;25.60;84.70;;;;;;5095670;28;20408;-70
2021/07/24 12:00:42;;;;;;;11.18;7.00;;;25.70;86.10;;;;;;5094928;28;20067;-70
2021/07/24 12:03:16;;;;;;;12.45;6.78;;;25.70;87.10;;;;;;5095496;28;20549;-69
2021/07/24 12:05:44;;;;;;;11.48;6.13;;;25.80;88.50;;;;;;5095648;28;20040;-70
2021/07/24 12:08:10;;;;;;;9.38;6.97;;;25.80;89.90;;;;;;5094269;28;20032;-70
2021/07/24 12:10:42;;;;;;;11.50;7.03;;;25.80;89.50;;;;;;5094386;28;20048;-71
2021/07/24 12:13:10;;;;;;;10.82;6.78;;;25.90;87.90;;;;;;5095123;28;20036;-69
2021/07/24 12:16:05;;;;;;;10.02;7.45;;;25.90;87.50;;;;;;5094686;28;20480;-69
2021/07/24 12:18:45;;;;;;;11.00;7.93;;;25.80;86.10;;;;;;5094878;28;20040;-69
2021/07/24 12:21:15;;;;;;;12.80;7.63;;;25.70;88.30;;;;;;5094992;28;20495;-69
2021/07/24 12:23:56;;;;;;;13.80;7.50;;;25.60;89.00;;;;;;5095279;28;20040;-69
2021/07/24 12:26:28;;;;;;;13.82;7.65;;;25.70;87.70;;;;;;5094856;28;20117;-70
2021/07/24 12:28:55;;;;;;;9.25;7.38;;;25.70;88.80;;;;;;5094317;28;20085;-69
2021/07/24 12:31:30;;;;;;;15.93;7.82;;;25.70;89.90;;;;;;5094417;28;20385;-69
2021/07/24 12:33:58;;;;;;;10.30;7.25;;;25.70;90.30;;;;;;5094612;28;20035;-69
2021/07/24 12:36:26;;;;;;;9.75;7.18;;;25.70;90.50;;;;;;5094956;28;20384;-69
2021/07/24 12:38:53;;;;;;;9.85;7.15;;;25.70;90.70;;;;;;5094496;28;20048;-69
2021/07/24 12:41:35;;;;;;;9.77;7.18;;;25.70;90.50;;;;;;5094135;28;20040;-69
2021/07/24 12:44:08;;;;;;;11.20;7.10;;;25.80;88.90;;;;;;5094567;28;20094;-70